Time;durP1;ratioP1;P1;durP2;ratioP2;P2;SDS_P1;SDS_P2;PMS_P1;PMS_P2;Temp;Humidity;BMP_temperature;BMP_pressure;BME280_temperature;BME280_humidity;BME280_pressure;Samples;Min_cycle;Max_cycle;Signal;HPM_P1;HPM_P2
2023/09/28 00:02:08;;;;;;;10.90;9.23;;;15.70;28.80;;;;;;5022354;28;20620;-64
2023/09/28 00:04:35;;;;;;;14.67;10.70;;;15.60;28.10;;;;;;5025402;28;20541;-61
2023/09/28 00:07:01;;;;;;;11.13;9.63;;;15.60;28.10;;;;;;5025700;28;20549;-61
2023/09/28 00:09:27;;;;;;;11.10;9.13;;;15.50;28.30;;;;;;5028084;28;20534;-61
2023/09/28 00:11:53;;;;;;;12.90;9.23;;;15.50;28.70;;;;;;5026607;28;20196;-61
2023/09/28 00:14:20;;;;;;;12.57;10.37;;;15.50;28.70;;;;;;5027535;28;20490;-61
2023/09/28 00:16:47;;;;;;;15.70;9.90;;;15.50;28.80;;;;;;5024936;28;20204;-61
2023/09/28 00:19:14;;;;;;;15.03;9.77;;;15.50;29.20;;;;;;5024929;28;20483;-61
2023/09/28 00:21:39;;;;;;;12.27;9.43;;;15.50;29.40;;;;;;5024019;28;20463;-61
2023/09/28 00:24:09;;;;;;;15.53;10.73;;;15.50;29.50;;;;;;5026055;28;20517;-61
2023/09/28 00:26:36;;;;;;;18.20;11.67;;;15.40;29.40;;;;;;5025992;28;20230;-61
2023/09/28 00:29:04;;;;;;;11.67;9.90;;;15.40;29.70;;;;;;5023632;28;21026;-61
2023/09/28 00:31:31;;;;;;;13.63;10.30;;;15.40;30.10;;;;;;5025090;28;20481;-64
2023/09/28 00:33:59;;;;;;;15.90;10.80;;;15.40;30.00;;;;;;5024368;28;20582;-64
2023/09/28 00:36:25;;;;;;;12.53;9.87;;;15.40;30.10;;;;;;5027599;28;20473;-64
2023/09/28 00:38:52;;;;;;;13.37;9.63;;;15.40;30.10;;;;;;5019900;28;20459;-65
2023/09/28 00:41:19;;;;;;;13.13;9.87;;;15.30;29.80;;;;;;5020422;28;20236;-61
2023/09/28 00:43:45;;;;;;;11.03;8.57;;;15.30;29.90;;;;;;5023273;28;20497;-62
2023/09/28 00:46:16;;;;;;;12.33;10.17;;;15.30;30.00;;;;;;5022770;28;20467;-61
2023/09/28 00:48:55;;;;;;;11.83;8.67;;;15.30;29.70;;;;;;5025598;28;20521;-61
2023/09/28 00:51:25;;;;;;;14.13;10.70;;;15.20;29.70;;;;;;5026264;28;20462;-61
2023/09/28 00:53:54;;;;;;;19.60;10.50;;;15.20;29.30;;;;;;5024969;28;20497;-61
2023/09/28 00:56:21;;;;;;;12.33;9.70;;;15.10;29.60;;;;;;5027201;28;20463;-61
2023/09/28 00:58:52;;;;;;;12.70;10.10;;;15.10;29.50;;;;;;5025067;28;20467;-61
2023/09/28 01:01:18;;;;;;;11.53;9.23;;;15.10;29.40;;;;;;5025771;28;21118;-61
2023/09/28 01:03:45;;;;;;;13.67;10.23;;;15.00;29.20;;;;;;5025127;28;20885;-61
2023/09/28 01:06:12;;;;;;;12.73;10.03;;;15.00;29.20;;;;;;5025496;28;20593;-61
2023/09/28 01:08:41;;;;;;;13.70;11.30;;;15.00;29.20;;;;;;5026107;28;20467;-61
2023/09/28 01:11:08;;;;;;;12.73;10.07;;;14.90;29.50;;;;;;5026524;28;20466;-61
2023/09/28 01:13:34;;;;;;;13.83;10.97;;;14.90;29.90;;;;;;5025439;28;20498;-61
2023/09/28 01:16:01;;;;;;;12.23;10.23;;;14.90;29.80;;;;;;5024813;28;20462;-61
2023/09/28 01:18:26;;;;;;;11.53;9.80;;;14.80;29.80;;;;;;5023972;28;20211;-61
2023/09/28 01:20:54;;;;;;;10.87;9.73;;;14.80;30.00;;;;;;5026120;28;20482;-61
2023/09/28 01:23:23;;;;;;;13.20;9.77;;;14.80;29.80;;;;;;5016256;28;20208;-61
2023/09/28 01:25:49;;;;;;;12.40;10.37;;;14.70;29.80;;;;;;5023242;28;21007;-61
2023/09/28 01:28:17;;;;;;;14.60;11.00;;;14.70;29.80;;;;;;5023795;28;20459;-61
2023/09/28 01:30:43;;;;;;;13.50;10.30;;;14.70;29.70;;;;;;5026304;28;20282;-61
2023/09/28 01:33:10;;;;;;;13.40;10.43;;;14.60;29.80;;;;;;5026669;28;20950;-61
2023/09/28 01:35:36;;;;;;;12.90;10.00;;;14.60;29.80;;;;;;5029613;28;20458;-61
2023/09/28 01:38:15;;;;;;;14.10;10.27;;;14.60;29.70;;;;;;5030469;28;20458;-61
2023/09/28 01:40:43;;;;;;;10.23;9.13;;;14.50;29.90;;;;;;5030833;28;20495;-61
2023/09/28 01:43:10;;;;;;;13.13;10.90;;;14.50;29.70;;;;;;5025867;28;20490;-61
2023/09/28 01:45:35;;;;;;;15.10;11.13;;;14.50;29.80;;;;;;5028448;28;20561;-61
2023/09/28 01:48:03;;;;;;;13.90;10.67;;;14.50;29.70;;;;;;5027502;28;20545;-61
2023/09/28 01:50:29;;;;;;;14.40;10.23;;;14.50;29.60;;;;;;5029635;28;20284;-61
2023/09/28 01:52:56;;;;;;;14.00;11.70;;;14.40;29.40;;;;;;5025920;28;20558;-61
2023/09/28 01:55:23;;;;;;;14.23;11.30;;;14.40;29.30;;;;;;5026974;28;20225;-61
2023/09/28 01:57:51;;;;;;;13.00;11.00;;;14.40;29.40;;;;;;5027412;28;20482;-61
2023/09/28 02:00:18;;;;;;;13.03;10.43;;;14.40;29.50;;;;;;5029048;28;20502;-61
2023/09/28 02:02:44;;;;;;;15.87;10.90;;;14.40;29.40;;;;;;5030477;28;20471;-61
2023/09/28 02:05:11;;;;;;;14.00;11.90;;;14.30;29.60;;;;;;5029148;28;20478;-61
2023/09/28 02:07:38;;;;;;;12.80;11.07;;;14.30;29.80;;;;;;5032843;28;20494;-61
2023/09/28 02:10:05;;;;;;;15.53;10.13;;;14.30;30.00;;;;;;5028675;28;20466;-61
2023/09/28 02:12:32;;;;;;;12.10;10.50;;;14.30;30.00;;;;;;5029530;28;21031;-61
2023/09/28 02:15:03;;;;;;;12.33;10.83;;;14.30;30.20;;;;;;5025350;28;20479;-61
2023/09/28 02:17:30;;;;;;;12.83;10.70;;;14.20;30.10;;;;;;5027734;28;20475;-61
2023/09/28 02:19:57;;;;;;;13.43;10.40;;;14.20;30.10;;;;;;5029178;28;20521;-61
2023/09/28 02:22:23;;;;;;;14.53;11.60;;;14.20;30.20;;;;;;5024983;28;20463;-61
2023/09/28 02:24:51;;;;;;;11.83;10.33;;;14.20;30.90;;;;;;5028406;28;20491;-61
2023/09/28 02:27:17;;;;;;;12.60;10.30;;;14.20;30.10;;;;;;5027653;28;20619;-61
2023/09/28 02:29:44;;;;;;;14.97;10.77;;;14.20;30.10;;;;;;5029011;28;20463;-61
2023/09/28 02:32:13;;;;;;;12.40;10.30;;;14.20;29.80;;;;;;5028658;28;20850;-61
2023/09/28 02:34:40;;;;;;;11.57;9.40;;;14.20;29.60;;;;;;5030706;28;20479;-61
2023/09/28 02:37:06;;;;;;;13.27;10.80;;;14.10;29.50;;;;;;5024650;28;20948;-61
2023/09/28 02:39:35;;;;;;;12.30;10.73;;;14.10;29.60;;;;;;5026912;28;20588;-61
2023/09/28 02:42:03;;;;;;;15.67;10.73;;;14.10;29.60;;;;;;5026035;28;20471;-61
2023/09/28 02:44:30;;;;;;;14.97;10.50;;;14.10;29.50;;;;;;5026806;28;20525;-61
2023/09/28 02:46:56;;;;;;;17.67;12.67;;;14.10;29.60;;;;;;5025839;28;20877;-61
2023/09/28 02:49:24;;;;;;;14.97;10.57;;;14.10;29.80;;;;;;5027481;28;20471;-61
2023/09/28 02:51:50;;;;;;;14.00;10.43;;;14.00;30.00;;;;;;5027824;28;20254;-61
2023/09/28 02:54:17;;;;;;;14.63;11.10;;;14.00;29.80;;;;;;5023315;28;20482;-61
2023/09/28 02:56:43;;;;;;;15.07;11.50;;;14.00;29.90;;;;;;5028188;28;20478;-61
2023/09/28 02:59:09;;;;;;;15.30;12.30;;;14.00;29.80;;;;;;5026428;28;20467;-62
2023/09/28 03:01:35;;;;;;;16.27;11.77;;;14.00;30.00;;;;;;5022067;28;20229;-61
2023/09/28 03:04:02;;;;;;;15.87;11.77;;;13.90;30.10;;;;;;5024539;28;20488;-61
2023/09/28 03:06:37;;;;;;;17.10;12.87;;;13.90;29.90;;;;;;5025574;28;20200;-61
2023/09/28 03:09:04;;;;;;;17.30;12.70;;;13.90;30.30;;;;;;5025762;28;20462;-61
2023/09/28 03:11:30;;;;;;;15.20;11.10;;;13.90;30.20;;;;;;5022741;28;20828;-61
2023/09/28 03:13:56;;;;;;;13.90;11.57;;;13.90;30.30;;;;;;5025445;28;20486;-61
2023/09/28 03:16:22;;;;;;;15.53;13.00;;;13.90;30.30;;;;;;5025034;28;20215;-62
2023/09/28 03:18:49;;;;;;;14.73;12.33;;;13.90;30.50;;;;;;5026957;28;20470;-62
2023/09/28 03:21:15;;;;;;;14.97;11.97;;;13.90;30.50;;;;;;5026204;28;20220;-62
2023/09/28 03:23:43;;;;;;;14.53;12.70;;;13.90;30.40;;;;;;5023393;28;21342;-62
2023/09/28 03:26:10;;;;;;;17.57;12.80;;;13.90;30.40;;;;;;5023590;28;20467;-62
2023/09/28 03:28:36;;;;;;;16.37;13.00;;;13.90;30.50;;;;;;5027407;28;20470;-62
2023/09/28 03:31:03;;;;;;;17.07;13.70;;;13.90;30.40;;;;;;5027029;28;20839;-63
2023/09/28 03:33:28;;;;;;;17.50;13.63;;;13.90;30.70;;;;;;5024492;28;21040;-62
2023/09/28 03:35:56;;;;;;;18.60;13.97;;;13.90;31.00;;;;;;5026439;28;20549;-62
2023/09/28 03:38:23;;;;;;;17.87;13.67;;;13.90;31.00;;;;;;5026727;28;20197;-62
2023/09/28 03:40:51;;;;;;;15.70;13.30;;;13.90;31.10;;;;;;5025389;28;20486;-62
2023/09/28 03:43:18;;;;;;;16.00;12.70;;;13.90;31.20;;;;;;5023553;28;20529;-62
2023/09/28 03:45:45;;;;;;;15.63;13.20;;;13.90;31.30;;;;;;5025479;28;20466;-62
2023/09/28 03:48:11;;;;;;;20.93;13.87;;;13.90;31.40;;;;;;5027947;28;20474;-62
2023/09/28 03:50:38;;;;;;;18.17;13.00;;;13.90;31.40;;;;;;5024545;28;20826;-63
2023/09/28 03:53:05;;;;;;;20.73;13.97;;;13.90;31.70;;;;;;5041994;23;20473;-62
2023/09/28 03:55:31;;;;;;;14.90;12.30;;;13.90;31.80;;;;;;4999675;28;20496;-62
2023/09/28 03:58:01;;;;;;;13.80;12.13;;;13.90;31.70;;;;;;5000948;28;21078;-64
2023/09/28 04:00:30;;;;;;;14.57;11.80;;;13.90;32.00;;;;;;5005322;28;20519;-64
2023/09/28 04:02:56;;;;;;;17.50;13.70;;;13.90;31.90;;;;;;5006977;28;21268;-64
2023/09/28 04:05:24;;;;;;;18.13;12.27;;;13.90;31.80;;;;;;5002385;28;20496;-64
2023/09/28 04:07:51;;;;;;;18.40;13.60;;;13.90;31.60;;;;;;5005500;28;20928;-64
2023/09/28 04:10:19;;;;;;;16.67;12.60;;;13.90;31.60;;;;;;5004280;28;20521;-65
2023/09/28 04:12:45;;;;;;;15.80;13.23;;;13.90;31.90;;;;;;5007539;28;20464;-65
2023/09/28 04:15:13;;;;;;;21.43;13.63;;;13.80;31.60;;;;;;5003425;28;20484;-66
2023/09/28 04:17:40;;;;;;;17.50;14.10;;;13.80;31.60;;;;;;5005642;28;20960;-65
2023/09/28 04:20:09;;;;;;;18.47;13.27;;;13.80;32.20;;;;;;5006305;28;20518;-66
2023/09/28 04:22:36;;;;;;;16.50;14.10;;;13.90;32.70;;;;;;5006404;28;20487;-66
2023/09/28 04:25:03;;;;;;;21.93;13.00;;;14.00;32.60;;;;;;5007789;28;20491;-65
2023/09/28 04:27:30;;;;;;;15.90;11.77;;;14.00;32.50;;;;;;5004655;28;20968;-66
2023/09/28 04:29:57;;;;;;;15.83;12.60;;;14.00;32.30;;;;;;5000394;28;20483;-65
2023/09/28 04:32:27;;;;;;;17.20;13.20;;;14.00;32.20;;;;;;5003722;28;20476;-65
2023/09/28 04:34:54;;;;;;;16.27;12.87;;;14.00;32.10;;;;;;5006871;28;20486;-65
2023/09/28 04:37:20;;;;;;;16.17;12.80;;;13.90;32.40;;;;;;5005316;28;20991;-65
2023/09/28 04:39:47;;;;;;;16.30;13.70;;;13.90;32.70;;;;;;5005605;28;20550;-65
2023/09/28 04:42:14;;;;;;;16.70;13.93;;;13.90;32.70;;;;;;4997910;28;20484;-65
2023/09/28 04:44:43;;;;;;;15.20;13.40;;;13.90;32.80;;;;;;5003478;28;20491;-67
2023/09/28 04:47:11;;;;;;;17.13;12.80;;;13.90;32.90;;;;;;5002957;28;20863;-67
2023/09/28 04:49:40;;;;;;;15.80;12.60;;;13.90;32.90;;;;;;5002434;28;20470;-67
2023/09/28 04:52:07;;;;;;;15.23;11.70;;;13.90;32.80;;;;;;5006656;28;20495;-66
2023/09/28 04:54:34;;;;;;;19.20;13.00;;;13.90;32.80;;;;;;5003124;28;20491;-66
2023/09/28 04:57:00;;;;;;;16.40;12.73;;;14.00;32.70;;;;;;5005423;28;20487;-66
2023/09/28 04:59:27;;;;;;;18.17;13.63;;;14.00;32.90;;;;;;5006414;28;20468;-66
2023/09/28 05:01:54;;;;;;;17.03;12.90;;;14.00;32.80;;;;;;5006675;28;20760;-66
2023/09/28 05:04:21;;;;;;;16.17;12.63;;;14.00;32.80;;;;;;5006508;28;20479;-66
2023/09/28 05:06:49;;;;;;;17.33;13.20;;;14.00;32.80;;;;;;4999673;28;20511;-66
2023/09/28 05:09:16;;;;;;;18.70;12.50;;;14.00;32.60;;;;;;5009617;28;20468;-66
2023/09/28 05:11:43;;;;;;;17.77;13.73;;;14.00;32.60;;;;;;5009869;28;20514;-66
2023/09/28 05:14:09;;;;;;;16.67;13.20;;;14.00;32.70;;;;;;5008715;28;20487;-67
2023/09/28 05:16:36;;;;;;;17.60;13.23;;;14.00;32.70;;;;;;5009927;28;20956;-68
2023/09/28 05:19:03;;;;;;;21.00;14.93;;;14.10;32.60;;;;;;5004422;28;20483;-67
2023/09/28 05:21:29;;;;;;;14.73;13.00;;;14.10;32.70;;;;;;5006215;28;20514;-66
2023/09/28 05:23:57;;;;;;;17.20;13.47;;;14.10;32.80;;;;;;5005341;28;20492;-67
2023/09/28 05:26:24;;;;;;;21.77;14.63;;;14.10;32.70;;;;;;5002155;28;21332;-65
2023/09/28 05:28:51;;;;;;;16.43;12.93;;;14.20;32.50;;;;;;5006512;28;20456;-66
2023/09/28 05:31:19;;;;;;;19.60;15.70;;;14.30;32.60;;;;;;5008984;28;20463;-66
2023/09/28 05:33:46;;;;;;;18.03;14.03;;;14.40;32.40;;;;;;5008742;28;20497;-66
2023/09/28 05:36:13;;;;;;;17.53;14.70;;;14.50;32.60;;;;;;5009437;28;21235;-66
2023/09/28 05:38:39;;;;;;;17.10;13.60;;;14.50;33.40;;;;;;5006457;28;20459;-67
2023/09/28 05:41:07;;;;;;;18.40;14.60;;;14.60;32.90;;;;;;5009239;28;20482;-66
2023/09/28 05:43:34;;;;;;;18.60;14.40;;;14.60;32.50;;;;;;5009759;28;20487;-67
2023/09/28 05:46:01;;;;;;;20.10;14.30;;;14.70;32.30;;;;;;5006916;28;20541;-68
2023/09/28 05:48:27;;;;;;;16.97;14.10;;;14.70;32.00;;;;;;5004719;28;20467;-67
2023/09/28 05:50:55;;;;;;;22.53;15.90;;;14.80;31.80;;;;;;5006417;28;21121;-67
2023/09/28 05:53:22;;;;;;;20.07;16.20;;;14.90;31.60;;;;;;5007228;28;20483;-66
2023/09/28 05:55:50;;;;;;;20.43;15.20;;;14.90;31.10;;;;;;5008977;28;20456;-65
2023/09/28 05:58:18;;;;;;;20.53;14.90;;;14.90;31.00;;;;;;4998118;28;20470;-66
2023/09/28 06:00:45;;;;;;;18.57;15.00;;;14.90;31.00;;;;;;5005875;28;20475;-65
2023/09/28 06:03:12;;;;;;;21.10;16.43;;;14.90;30.90;;;;;;5007622;28;20464;-66
2023/09/28 06:05:40;;;;;;;19.07;16.30;;;15.00;31.10;;;;;;5008180;28;20494;-66
2023/09/28 06:08:06;;;;;;;18.10;13.87;;;15.00;31.00;;;;;;5008572;28;20464;-67
2023/09/28 06:10:33;;;;;;;19.57;15.70;;;15.20;31.10;;;;;;5005308;28;20468;-67
2023/09/28 06:13:00;;;;;;;17.20;13.80;;;15.40;31.00;;;;;;5007270;28;20541;-66
2023/09/28 06:15:28;;;;;;;19.93;12.70;;;15.60;30.30;;;;;;5000306;28;20492;-63
2023/09/28 06:17:55;;;;;;;16.63;14.03;;;15.70;29.50;;;;;;5006835;28;20490;-65
2023/09/28 06:20:22;;;;;;;16.40;13.47;;;15.70;28.80;;;;;;5006163;28;20465;-64
2023/09/28 06:22:49;;;;;;;16.87;14.10;;;15.70;28.50;;;;;;5007647;28;20464;-67
2023/09/28 06:25:16;;;;;;;21.60;13.83;;;15.70;28.30;;;;;;5007439;28;20498;-66
2023/09/28 06:27:42;;;;;;;17.40;14.00;;;15.80;27.90;;;;;;5008588;28;20542;-66
2023/09/28 06:30:10;;;;;;;22.90;13.10;;;15.80;27.30;;;;;;5008594;28;20463;-67
2023/09/28 06:32:38;;;;;;;16.93;12.47;;;15.90;27.00;;;;;;5004123;28;20468;-65
2023/09/28 06:35:05;;;;;;;16.17;13.17;;;15.90;26.80;;;;;;5008463;28;20475;-67
2023/09/28 06:37:32;;;;;;;19.77;12.93;;;16.00;26.70;;;;;;5008096;28;20468;-66
2023/09/28 06:39:59;;;;;;;15.27;13.07;;;16.10;26.80;;;;;;5009397;28;20471;-66
2023/09/28 06:42:26;;;;;;;14.83;12.73;;;16.10;26.70;;;;;;5006669;28;20494;-65
2023/09/28 06:44:54;;;;;;;20.90;13.30;;;16.20;26.50;;;;;;5008660;28;20490;-65
2023/09/28 06:47:21;;;;;;;14.90;12.13;;;16.30;26.20;;;;;;5007301;28;20463;-66
2023/09/28 06:49:49;;;;;;;16.90;13.50;;;16.40;26.30;;;;;;5005905;28;20965;-69
2023/09/28 06:52:15;;;;;;;18.30;14.43;;;16.60;26.20;;;;;;5005108;28;20466;-68
2023/09/28 06:54:42;;;;;;;15.97;13.53;;;16.80;25.80;;;;;;5007406;28;20483;-68
2023/09/28 06:57:09;;;;;;;17.43;13.33;;;17.40;25.00;;;;;;5004009;28;20459;-68
2023/09/28 06:59:36;;;;;;;19.53;12.37;;;18.10;23.10;;;;;;5007997;28;20495;-67
2023/09/28 07:02:04;;;;;;;16.67;12.57;;;19.20;20.20;;;;;;5005313;28;20487;-64
2023/09/28 07:04:31;;;;;;;16.93;12.87;;;20.20;17.90;;;;;;5005553;28;21067;-64
2023/09/28 07:06:59;;;;;;;14.83;11.80;;;21.20;15.30;;;;;;5008093;28;20459;-66
2023/09/28 07:09:26;;;;;;;14.50;12.47;;;22.00;13.10;;;;;;5008197;28;20471;-65
2023/09/28 07:11:53;;;;;;;14.47;11.30;;;23.00;10.80;;;;;;5008298;28;20534;-66
2023/09/28 07:14:19;;;;;;;13.90;11.63;;;24.40;8.00;;;;;;5005171;28;20482;-66
2023/09/28 07:16:46;;;;;;;14.53;11.43;;;25.70;4.50;;;;;;5006483;28;20456;-66
2023/09/28 07:19:13;;;;;;;12.40;10.60;;;26.90;1.90;;;;;;5007350;28;20928;-65
2023/09/28 07:21:40;;;;;;;14.00;10.47;;;28.50;1.00;;;;;;5003626;28;20491;-65
2023/09/28 07:24:08;;;;;;;11.67;9.60;;;29.90;1.00;;;;;;5004094;28;20498;-65
2023/09/28 07:26:35;;;;;;;10.60;9.37;;;30.90;1.00;;;;;;5005647;28;20471;-66
2023/09/28 07:29:02;;;;;;;10.77;9.60;;;31.80;1.00;;;;;;5001896;28;20460;-65
2023/09/28 07:31:28;;;;;;;10.20;8.80;;;32.80;1.00;;;;;;5005456;28;21006;-65
2023/09/28 07:33:56;;;;;;;10.90;9.57;;;33.90;1.00;;;;;;5005569;28;20490;-65
2023/09/28 07:36:22;;;;;;;9.73;8.73;;;35.00;1.00;;;;;;5007293;28;20488;-68
2023/09/28 07:38:50;;;;;;;9.53;8.53;;;35.80;1.00;;;;;;5006129;28;20478;-66
2023/09/28 07:41:18;;;;;;;9.93;8.97;;;36.30;1.00;;;;;;5005540;28;20487;-65
2023/09/28 07:43:45;;;;;;;9.40;8.40;;;36.80;1.00;;;;;;5003145;28;20483;-65
2023/09/28 07:46:13;;;;;;;9.00;7.87;;;38.40;1.00;;;;;;5005587;28;20460;-65
2023/09/28 07:48:40;;;;;;;9.80;8.80;;;40.00;1.00;;;;;;5006984;28;21001;-66
2023/09/28 07:51:07;;;;;;;10.80;8.97;;;40.30;1.00;;;;;;5008428;28;20459;-65
2023/09/28 07:53:33;;;;;;;10.70;8.17;;;38.40;1.00;;;;;;5006429;28;20484;-67
2023/09/28 07:56:00;;;;;;;10.17;8.80;;;36.50;1.00;;;;;;5012246;23;20488;-72
2023/09/28 07:58:28;;;;;;;10.40;8.90;;;35.00;1.00;;;;;;4988741;28;20465;-71
2023/09/28 08:00:55;;;;;;;11.23;8.63;;;34.30;1.00;;;;;;4992053;28;20471;-70
2023/09/28 08:03:22;;;;;;;12.90;9.00;;;34.80;1.00;;;;;;4985617;28;20483;-71
2023/09/28 08:05:48;;;;;;;9.70;8.67;;;36.50;1.00;;;;;;4969128;28;20465;-69
2023/09/28 08:08:16;;;;;;;10.37;8.40;;;37.40;1.00;;;;;;4965662;28;20472;-68
2023/09/28 08:10:43;;;;;;;13.10;8.73;;;37.80;1.00;;;;;;4972559;28;20472;-69
2023/09/28 08:13:10;;;;;;;10.33;8.03;;;38.70;1.00;;;;;;4968785;28;20465;-69
2023/09/28 08:15:38;;;;;;;9.53;7.20;;;39.30;1.00;;;;;;4970191;28;20468;-69
2023/09/28 08:18:04;;;;;;;8.70;7.70;;;40.50;1.00;;;;;;4973693;28;21029;-69
2023/09/28 08:20:33;;;;;;;9.93;7.90;;;40.50;1.00;;;;;;4970544;28;20471;-69
2023/09/28 08:22:59;;;;;;;9.03;7.93;;;40.40;1.00;;;;;;4962248;28;20485;-69
2023/09/28 08:25:26;;;;;;;10.27;7.33;;;39.60;1.00;;;;;;4968227;28;20485;-69
2023/09/28 08:27:52;;;;;;;12.30;8.53;;;40.00;1.00;;;;;;4965315;28;20210;-69
2023/09/28 08:30:19;;;;;;;10.57;7.27;;;40.50;1.00;;;;;;4964282;28;20469;-70
2023/09/28 08:32:48;;;;;;;10.30;7.20;;;39.70;1.00;;;;;;4967775;28;20461;-70
2023/09/28 08:35:15;;;;;;;8.63;6.80;;;38.70;1.00;;;;;;4968156;28;20481;-70
2023/09/28 08:37:42;;;;;;;11.03;7.77;;;38.20;1.00;;;;;;4967845;28;20503;-70
2023/09/28 08:40:10;;;;;;;15.13;7.30;;;38.30;1.00;;;;;;4966094;28;20477;-69
2023/09/28 08:42:41;;;;;;;8.03;6.97;;;40.30;1.00;;;;;;4973813;28;20484;-69
2023/09/28 08:45:11;;;;;;;9.00;7.17;;;42.00;1.00;;;;;;4973357;28;20483;-69
2023/09/28 08:47:46;;;;;;;8.00;6.73;;;41.60;1.00;;;;;;4969512;28;20462;-69
2023/09/28 08:50:18;;;;;;;7.97;7.17;;;41.40;1.00;;;;;;4969646;28;20468;-69
2023/09/28 08:52:46;;;;;;;9.47;6.93;;;42.00;1.00;;;;;;4971177;28;20457;-69
2023/09/28 08:55:13;;;;;;;8.37;7.50;;;42.80;1.00;;;;;;4966878;28;20492;-72
2023/09/28 08:57:42;;;;;;;9.47;7.03;;;43.20;1.00;;;;;;4970774;28;20534;-69
2023/09/28 09:00:13;;;;;;;7.07;6.07;;;44.00;1.00;;;;;;4971601;28;20934;-70
2023/09/28 09:02:43;;;;;;;7.90;5.63;;;44.70;1.00;;;;;;4968086;28;20500;-69
2023/09/28 09:05:11;;;;;;;10.23;6.37;;;45.50;1.00;;;;;;4970305;28;20490;-69
2023/09/28 09:07:40;;;;;;;9.63;6.40;;;46.40;1.00;;;;;;4970721;28;20868;-69
2023/09/28 09:10:13;;;;;;;8.20;6.60;;;47.20;1.00;;;;;;4968642;28;20475;-70
2023/09/28 09:12:40;;;;;;;9.23;6.23;;;47.90;1.00;;;;;;4968622;28;20477;-69
2023/09/28 09:15:08;;;;;;;7.90;6.30;;;48.60;1.00;;;;;;4967153;28;21010;-69
2023/09/28 09:17:37;;;;;;;7.37;5.60;;;49.10;1.00;;;;;;4971926;28;20473;-69
2023/09/28 09:20:08;;;;;;;5.87;5.10;;;49.30;1.00;;;;;;4966492;28;20469;-69
2023/09/28 09:22:35;;;;;;;9.97;6.17;;;49.90;1.00;;;;;;4972510;28;20481;-69
2023/09/28 09:25:05;;;;;;;22.23;6.50;;;50.30;1.00;;;;;;4966713;28;20486;-69
2023/09/28 09:27:33;;;;;;;8.23;5.70;;;50.60;1.00;;;;;;4970275;28;20529;-69
2023/09/28 09:30:05;;;;;;;6.67;5.30;;;50.60;1.00;;;;;;4975639;28;20468;-69
2023/09/28 09:32:32;;;;;;;6.60;4.90;;;50.70;1.00;;;;;;4968341;28;21071;-69
2023/09/28 09:34:59;;;;;;;11.30;5.17;;;50.80;1.00;;;;;;4976838;28;20568;-69
2023/09/28 09:37:26;;;;;;;6.00;4.67;;;50.90;1.00;;;;;;4969143;28;20461;-69
2023/09/28 09:39:52;;;;;;;6.20;4.40;;;51.00;1.00;;;;;;4968199;28;20464;-70
2023/09/28 09:42:29;;;;;;;5.60;4.43;;;51.30;1.00;;;;;;4974069;28;20504;-71
2023/09/28 09:44:56;;;;;;;8.07;5.03;;;51.40;1.00;;;;;;4968891;28;20489;-70
2023/09/28 09:47:25;;;;;;;9.43;4.83;;;51.40;1.00;;;;;;4974245;28;20457;-70
2023/09/28 09:49:53;;;;;;;6.30;5.27;;;51.20;1.00;;;;;;4962796;28;20556;-70
2023/09/28 09:52:21;;;;;;;6.67;5.17;;;51.10;1.00;;;;;;4969502;28;20839;-70
2023/09/28 09:54:48;;;;;;;6.50;5.20;;;51.10;1.00;;;;;;4967929;28;20485;-69
2023/09/28 09:57:16;;;;;;;7.60;4.77;;;50.70;1.00;;;;;;4967264;28;20524;-70
2023/09/28 09:59:47;;;;;;;8.87;6.53;;;50.30;1.00;;;;;;4969119;28;20986;-71
2023/09/28 10:02:25;;;;;;;7.40;5.07;;;49.90;1.00;;;;;;4967809;28;20567;-72
2023/09/28 10:04:55;;;;;;;7.77;5.60;;;49.70;1.00;;;;;;4975084;28;21073;-70
2023/09/28 10:07:26;;;;;;;6.77;5.23;;;49.20;1.00;;;;;;4960055;28;20466;-68
2023/09/28 10:09:54;;;;;;;8.30;5.67;;;48.70;1.00;;;;;;4965142;28;20538;-69
2023/09/28 10:12:22;;;;;;;9.17;5.43;;;48.10;1.00;;;;;;4967227;28;20462;-69
2023/09/28 10:14:51;;;;;;;8.40;5.10;;;47.50;1.00;;;;;;4960334;28;20520;-70
2023/09/28 10:17:18;;;;;;;7.40;4.03;;;47.00;1.00;;;;;;4974517;28;20468;-71
2023/09/28 10:19:45;;;;;;;5.93;4.80;;;46.70;1.00;;;;;;4970529;28;20469;-70
2023/09/28 10:22:13;;;;;;;8.67;4.27;;;45.90;1.00;;;;;;4969909;28;20493;-70
2023/09/28 10:24:39;;;;;;;6.70;4.67;;;45.40;1.00;;;;;;4976943;28;20498;-70
2023/09/28 10:27:10;;;;;;;8.00;4.77;;;44.90;1.00;;;;;;4969056;28;20474;-67
2023/09/28 10:29:39;;;;;;;6.77;5.07;;;44.40;1.00;;;;;;4971942;28;20557;-70
2023/09/28 10:32:15;;;;;;;6.80;4.40;;;43.80;1.00;;;;;;4980211;28;20523;-70
2023/09/28 10:34:45;;;;;;;6.60;4.27;;;43.20;1.00;;;;;;4978533;28;20497;-70
2023/09/28 10:37:18;;;;;;;5.50;4.30;;;42.10;1.00;;;;;;4968290;28;21381;-71
2023/09/28 10:39:49;;;;;;;7.00;4.53;;;41.20;1.00;;;;;;4972184;28;20473;-71
2023/09/28 10:42:17;;;;;;;7.90;4.50;;;40.70;1.00;;;;;;4970263;28;20484;-71
2023/09/28 10:44:47;;;;;;;7.17;4.70;;;40.10;1.00;;;;;;4972197;28;20481;-71
2023/09/28 10:47:15;;;;;;;6.90;4.57;;;39.50;1.00;;;;;;4974091;28;20461;-70
2023/09/28 10:49:43;;;;;;;7.50;4.60;;;38.90;1.00;;;;;;4970919;28;20500;-70
2023/09/28 10:52:11;;;;;;;8.50;4.10;;;38.40;1.00;;;;;;4972327;28;20491;-70
2023/09/28 10:54:38;;;;;;;5.90;4.17;;;37.80;1.00;;;;;;4965299;28;20511;-71
2023/09/28 10:57:05;;;;;;;8.13;4.40;;;37.30;1.00;;;;;;4970572;28;20473;-69
2023/09/28 10:59:33;;;;;;;7.37;3.50;;;36.60;1.00;;;;;;4970830;28;20496;-70
2023/09/28 11:02:01;;;;;;;9.83;4.60;;;36.00;1.00;;;;;;4965202;28;20492;-70
2023/09/28 11:04:30;;;;;;;7.77;3.90;;;35.40;1.00;;;;;;4969662;28;21061;-70
2023/09/28 11:06:56;;;;;;;11.30;3.90;;;34.90;1.00;;;;;;4972160;28;20549;-71
2023/09/28 11:09:24;;;;;;;11.40;4.03;;;34.60;1.00;;;;;;4973022;28;20465;-71
2023/09/28 11:11:51;;;;;;;10.47;3.63;;;34.30;1.00;;;;;;4964553;28;20532;-70
2023/09/28 11:14:20;;;;;;;7.40;4.87;;;34.10;1.00;;;;;;4961358;28;20491;-70
2023/09/28 11:16:49;;;;;;;5.47;3.70;;;33.80;1.00;;;;;;4969513;28;20462;-70
2023/09/28 11:19:16;;;;;;;6.73;3.83;;;33.80;1.00;;;;;;4960276;28;20473;-68
2023/09/28 11:21:44;;;;;;;6.80;3.30;;;33.80;1.00;;;;;;4973072;28;20466;-71
2023/09/28 11:24:11;;;;;;;6.47;3.57;;;34.20;1.00;;;;;;4965690;28;20489;-70
2023/09/28 11:26:39;;;;;;;7.13;3.50;;;34.70;1.00;;;;;;4973285;28;20524;-70
2023/09/28 11:29:07;;;;;;;7.73;3.60;;;34.80;1.00;;;;;;4967824;28;20469;-69
2023/09/28 11:31:35;;;;;;;8.63;3.30;;;34.80;1.00;;;;;;4971156;28;22162;-69
2023/09/28 11:34:03;;;;;;;6.77;3.53;;;34.80;1.00;;;;;;4974580;28;20478;-69
2023/09/28 11:36:31;;;;;;;8.33;4.27;;;34.70;1.00;;;;;;4973032;28;20555;-69
2023/09/28 11:39:00;;;;;;;8.03;3.90;;;34.80;1.00;;;;;;4975520;28;20481;-69
2023/09/28 11:41:27;;;;;;;8.40;4.40;;;35.00;1.00;;;;;;4966276;28;20461;-69
2023/09/28 11:43:56;;;;;;;8.93;3.70;;;35.00;1.00;;;;;;4964733;28;20482;-69
2023/09/28 11:46:24;;;;;;;6.80;4.13;;;34.90;1.00;;;;;;4965439;28;20470;-69
2023/09/28 11:49:03;;;;;;;6.03;3.53;;;34.90;1.00;;;;;;4969015;28;20458;-69
2023/09/28 11:51:31;;;;;;;6.90;4.20;;;34.80;1.00;;;;;;4964973;28;20963;-69
2023/09/28 11:54:01;;;;;;;10.50;4.30;;;34.70;1.00;;;;;;4962955;28;20481;-69
2023/09/28 11:56:28;;;;;;;10.10;4.67;;;34.50;1.00;;;;;;4962968;28;21024;-69
2023/09/28 11:58:55;;;;;;;8.67;4.27;;;34.10;1.00;;;;;;4973522;28;20466;-69
2023/09/28 12:01:22;;;;;;;6.50;3.93;;;33.60;1.00;;;;;;4967824;28;20481;-70
2023/09/28 12:03:49;;;;;;;8.83;4.30;;;33.20;1.00;;;;;;4972190;28;20485;-69
2023/09/28 12:06:17;;;;;;;8.30;4.00;;;32.70;1.00;;;;;;4961399;28;20492;-69
2023/09/28 12:08:44;;;;;;;8.07;4.17;;;32.30;1.00;;;;;;4965486;28;20473;-70
2023/09/28 12:11:12;;;;;;;7.03;4.63;;;32.00;1.00;;;;;;4964618;28;20476;-69
2023/09/28 12:13:39;;;;;;;7.10;3.93;;;31.60;1.00;;;;;;4970230;28;20504;-69
2023/09/28 12:16:06;;;;;;;9.80;4.00;;;31.30;1.00;;;;;;4968068;28;20548;-70
2023/09/28 12:18:33;;;;;;;7.10;3.93;;;31.00;1.00;;;;;;4969001;28;20458;-69
2023/09/28 12:21:02;;;;;;;6.90;3.80;;;30.70;1.00;;;;;;4969244;28;20470;-69
2023/09/28 12:23:29;;;;;;;9.03;4.43;;;30.50;1.00;;;;;;4973983;28;20491;-69
2023/09/28 12:25:56;;;;;;;8.90;3.37;;;30.30;1.00;;;;;;4967132;28;20563;-70
2023/09/28 12:28:24;;;;;;;6.67;3.53;;;30.10;1.00;;;;;;4969827;28;20834;-69
2023/09/28 12:30:51;;;;;;;7.23;3.57;;;29.80;1.00;;;;;;4970917;28;20469;-70
2023/09/28 12:33:18;;;;;;;6.90;3.30;;;29.60;1.00;;;;;;4965987;28;20462;-70
2023/09/28 12:35:45;;;;;;;7.00;3.63;;;29.40;1.00;;;;;;4962125;28;20512;-71
2023/09/28 12:38:12;;;;;;;7.37;3.70;;;29.30;1.00;;;;;;4971271;28;20962;-71
2023/09/28 12:40:38;;;;;;;6.93;3.70;;;29.20;1.00;;;;;;4967082;28;20462;-70